Time;durP1;ratioP1;P1;durP2;ratioP2;P2;SDS_P1;SDS_P2;PMS_P1;PMS_P2;Temp;Humidity;BMP_temperature;BMP_pressure;BME280_temperature;BME280_humidity;BME280_pressure;Samples;Min_cycle;Max_cycle;Signal;HPM_P1;HPM_P2
2024/03/23 00:00:55;;;;;;;26.23;18.77;;;12.00;93.20;;;;;;5075968;28;20204;-81
2024/03/23 00:03:23;;;;;;;23.03;17.43;;;12.00;93.30;;;;;;5019899;28;20665;-82
2024/03/23 00:05:50;;;;;;;25.87;18.47;;;12.00;93.40;;;;;;5052584;28;20212;-80
2024/03/23 00:08:17;;;;;;;20.67;16.10;;;12.00;93.40;;;;;;5045593;28;20218;-80
2024/03/23 00:10:44;;;;;;;20.53;15.73;;;12.00;93.50;;;;;;5032816;28;20224;-80
2024/03/23 00:13:11;;;;;;;19.90;15.07;;;12.00;93.50;;;;;;5052687;28;20214;-80
2024/03/23 00:15:38;;;;;;;18.30;13.67;;;12.00;93.40;;;;;;5057465;28;21036;-81
2024/03/23 00:18:06;;;;;;;18.83;14.70;;;12.00;93.40;;;;;;5057241;28;20224;-80
2024/03/23 00:20:33;;;;;;;18.80;14.60;;;12.00;93.50;;;;;;5051043;28;20217;-82
2024/03/23 00:23:00;;;;;;;22.73;15.70;;;12.00;93.60;;;;;;5055270;28;20205;-80
2024/03/23 00:25:28;;;;;;;18.87;14.43;;;12.00;93.70;;;;;;5047747;28;20197;-82
2024/03/23 00:27:55;;;;;;;22.60;14.57;;;12.00;93.90;;;;;;5060176;28;20251;-80
2024/03/23 00:30:22;;;;;;;22.23;16.00;;;12.00;93.60;;;;;;5039446;28;20257;-80
2024/03/23 00:32:49;;;;;;;23.13;15.83;;;12.00;93.50;;;;;;5080882;28;20201;-80
2024/03/23 00:35:17;;;;;;;21.00;14.50;;;12.00;93.50;;;;;;5091998;28;20198;-81
2024/03/23 00:37:44;;;;;;;18.60;14.67;;;12.00;93.60;;;;;;5065073;28;20198;-81
2024/03/23 00:40:13;;;;;;;21.63;14.90;;;11.90;93.60;;;;;;5079108;28;20251;-80
2024/03/23 00:42:40;;;;;;;20.47;15.73;;;11.90;93.60;;;;;;5046575;28;20201;-82
2024/03/23 00:45:08;;;;;;;16.50;12.30;;;11.90;93.60;;;;;;5062339;28;20239;-81
2024/03/23 00:47:35;;;;;;;17.60;13.10;;;11.90;93.60;;;;;;5080506;28;20623;-81
2024/03/23 00:50:02;;;;;;;20.40;14.97;;;11.90;93.40;;;;;;5081721;28;20225;-81
2024/03/23 00:52:29;;;;;;;21.17;15.00;;;11.80;93.30;;;;;;5065598;28;20197;-81
2024/03/23 00:54:55;;;;;;;19.17;14.40;;;11.80;93.30;;;;;;5077579;28;20657;-81
2024/03/23 00:57:22;;;;;;;22.67;15.70;;;11.70;93.20;;;;;;5052019;28;20190;-81
2024/03/23 00:59:48;;;;;;;21.63;16.27;;;11.70;93.40;;;;;;5079882;28;20216;-81
2024/03/23 01:02:14;;;;;;;18.27;14.97;;;11.70;93.50;;;;;;5079105;28;20204;-81
2024/03/23 01:04:40;;;;;;;20.47;15.63;;;11.60;93.60;;;;;;5068004;28;20212;-81
2024/03/23 01:07:06;;;;;;;20.67;13.60;;;11.60;93.60;;;;;;5059105;28;20191;-81
2024/03/23 01:09:33;;;;;;;20.53;14.17;;;11.60;93.60;;;;;;5073744;28;20221;-82
2024/03/23 01:11:59;;;;;;;19.93;14.83;;;11.50;93.50;;;;;;5078453;28;20236;-80
2024/03/23 01:14:25;;;;;;;23.70;16.37;;;11.50;93.60;;;;;;5061885;28;20204;-81
2024/03/23 01:16:51;;;;;;;19.83;15.73;;;11.50;93.70;;;;;;5079336;28;20591;-81
2024/03/23 01:19:17;;;;;;;21.10;14.97;;;11.50;93.70;;;;;;5049999;28;20213;-81
2024/03/23 01:21:43;;;;;;;21.17;16.60;;;11.50;93.70;;;;;;5061704;28;20203;-81
2024/03/23 01:24:10;;;;;;;20.37;15.17;;;11.40;93.70;;;;;;5057829;28;20260;-81
2024/03/23 01:26:37;;;;;;;23.93;16.67;;;11.40;93.70;;;;;;5084984;28;20201;-80
2024/03/23 01:29:03;;;;;;;23.67;16.03;;;11.40;93.80;;;;;;5046587;28;20258;-80
2024/03/23 01:31:51;;;;;;;22.50;17.33;;;11.30;93.90;;;;;;5074405;28;20321;-81
2024/03/23 01:35:03;;;;;;;24.47;16.47;;;11.30;93.90;;;;;;5078856;28;20247;-81
2024/03/23 01:38:14;;;;;;;20.57;15.33;;;11.30;94.00;;;;;;5068724;28;20295;-81
2024/03/23 01:40:41;;;;;;;20.07;15.90;;;11.30;94.20;;;;;;5094469;28;20197;-80
2024/03/23 01:43:08;;;;;;;24.33;15.90;;;11.20;94.20;;;;;;5055733;28;20204;-80
2024/03/23 01:45:35;;;;;;;19.33;14.07;;;11.20;94.40;;;;;;5079807;28;20201;-81
2024/03/23 01:48:02;;;;;;;20.33;14.70;;;11.20;94.50;;;;;;5052356;28;20549;-81
2024/03/23 01:50:33;;;;;;;20.30;15.27;;;11.20;94.40;;;;;;5031379;28;20233;-80
2024/03/23 01:53:05;;;;;;;19.97;14.83;;;11.10;94.40;;;;;;5031915;28;20206;-81
2024/03/23 01:55:32;;;;;;;18.77;14.03;;;11.10;94.50;;;;;;5057885;28;20217;-81
2024/03/23 01:57:58;;;;;;;17.00;12.97;;;11.10;94.70;;;;;;5047119;28;20201;-80
2024/03/23 02:00:26;;;;;;;16.20;12.83;;;11.10;94.80;;;;;;5060884;28;20283;-81
2024/03/23 02:02:53;;;;;;;17.20;12.70;;;11.00;94.80;;;;;;5077374;28;20307;-81
2024/03/23 02:05:22;;;;;;;18.37;14.13;;;11.10;94.70;;;;;;5054258;28;20235;-81
2024/03/23 02:07:50;;;;;;;20.00;13.27;;;11.10;94.60;;;;;;5073462;28;20648;-81
2024/03/23 02:10:17;;;;;;;18.60;13.10;;;11.00;94.60;;;;;;5077845;28;20316;-82
2024/03/23 02:12:43;;;;;;;17.30;13.80;;;11.00;94.60;;;;;;5066580;28;20313;-81
2024/03/23 02:15:10;;;;;;;16.93;13.13;;;11.00;94.70;;;;;;5060681;28;20242;-81
2024/03/23 02:17:36;;;;;;;17.27;13.70;;;11.00;94.70;;;;;;5057778;28;20207;-81
2024/03/23 02:20:06;;;;;;;19.37;14.27;;;11.00;94.70;;;;;;5079158;28;20198;-81
2024/03/23 02:22:39;;;;;;;14.17;11.57;;;11.00;94.70;;;;;;5055441;28;20268;-81
2024/03/23 02:25:06;;;;;;;16.63;13.53;;;11.00;94.70;;;;;;5057395;28;20216;-81
2024/03/23 02:27:34;;;;;;;22.03;15.73;;;11.00;94.70;;;;;;5080260;28;20654;-81
2024/03/23 02:30:00;;;;;;;18.30;14.33;;;11.00;94.70;;;;;;5070208;28;20235;-82
2024/03/23 02:32:27;;;;;;;23.87;13.93;;;11.00;94.60;;;;;;5066262;28;20271;-80
2024/03/23 02:34:53;;;;;;;19.80;14.53;;;11.00;94.70;;;;;;5067026;28;20219;-80
2024/03/23 02:37:19;;;;;;;19.07;13.60;;;10.90;94.70;;;;;;5073074;28;20223;-80
2024/03/23 02:39:45;;;;;;;17.23;11.27;;;10.90;94.80;;;;;;5073240;28;20201;-81
2024/03/23 02:42:12;;;;;;;13.80;10.87;;;10.90;94.80;;;;;;5075587;28;20258;-81
2024/03/23 02:44:38;;;;;;;17.13;11.83;;;10.80;94.70;;;;;;5061523;28;20205;-80
2024/03/23 02:47:05;;;;;;;16.53;12.47;;;10.80;94.60;;;;;;5062356;28;20214;-81
2024/03/23 02:49:31;;;;;;;19.70;13.77;;;10.80;94.50;;;;;;5047933;28;20220;-83
2024/03/23 02:51:57;;;;;;;18.97;13.20;;;10.70;94.50;;;;;;5063304;28;20189;-81
2024/03/23 02:54:23;;;;;;;20.03;13.10;;;10.70;94.50;;;;;;5078955;28;20535;-81
2024/03/23 02:56:49;;;;;;;20.10;13.47;;;10.70;94.50;;;;;;5062579;28;20596;-81
2024/03/23 02:59:16;;;;;;;22.30;13.63;;;10.60;94.50;;;;;;5079368;28;20205;-80
2024/03/23 03:01:42;;;;;;;17.67;13.07;;;10.60;94.60;;;;;;5101318;28;20200;-81
2024/03/23 03:04:08;;;;;;;17.07;13.13;;;10.60;94.70;;;;;;5078857;28;20218;-81
2024/03/23 03:06:34;;;;;;;16.03;12.47;;;10.60;94.80;;;;;;5079069;28;20207;-81
2024/03/23 03:09:00;;;;;;;18.23;12.33;;;10.60;95.00;;;;;;5077363;28;20235;-80
2024/03/23 03:11:26;;;;;;;16.07;12.80;;;10.60;95.00;;;;;;5052228;28;20214;-81
2024/03/23 03:13:52;;;;;;;17.50;12.67;;;10.60;94.90;;;;;;5054686;28;20207;-81
2024/03/23 03:16:19;;;;;;;16.90;12.17;;;10.50;94.90;;;;;;5085630;28;20206;-81
2024/03/23 03:18:46;;;;;;;13.97;11.53;;;10.50;94.80;;;;;;5056957;28;20718;-82
2024/03/23 03:21:13;;;;;;;13.13;10.83;;;10.50;94.80;;;;;;5077174;28;20224;-81
2024/03/23 03:23:39;;;;;;;15.57;10.97;;;10.40;94.70;;;;;;5059079;28;20200;-82
2024/03/23 03:26:06;;;;;;;16.77;11.17;;;10.40;94.50;;;;;;5081432;28;20257;-80
2024/03/23 03:28:33;;;;;;;13.77;10.83;;;10.30;94.40;;;;;;5072359;28;20647;-81
2024/03/23 03:31:00;;;;;;;17.80;12.60;;;10.30;94.50;;;;;;5047135;28;20240;-81
2024/03/23 03:33:53;;;;;;;16.43;12.20;;;10.20;94.50;;;;;;5077294;28;20546;-81
2024/03/23 03:37:38;;;;;;;15.70;12.43;;;10.20;94.60;;;;;;5097964;28;20196;-81
2024/03/23 03:40:53;;;;;;;15.07;11.53;;;10.20;94.80;;;;;;5099079;28;20258;-81
2024/03/23 03:43:20;;;;;;;18.20;12.00;;;10.10;94.90;;;;;;5078647;28;20207;-81
2024/03/23 03:45:54;;;;;;;13.73;11.13;;;10.10;95.00;;;;;;5068311;28;20213;-81
2024/03/23 03:48:21;;;;;;;18.00;11.60;;;10.10;95.30;;;;;;5073028;28;20211;-82
2024/03/23 03:50:48;;;;;;;18.13;12.13;;;10.10;95.00;;;;;;5052210;28;20224;-82
2024/03/23 03:53:14;;;;;;;13.93;11.47;;;10.10;94.90;;;;;;5068811;28;20208;-81
2024/03/23 03:55:41;;;;;;;16.60;12.67;;;10.10;94.80;;;;;;5085574;28;20203;-81
2024/03/23 03:58:08;;;;;;;16.30;12.40;;;10.00;94.80;;;;;;5088785;28;20205;-81
2024/03/23 04:00:35;;;;;;;15.73;12.33;;;10.00;94.90;;;;;;5049853;28;20201;-81
2024/03/23 04:11:23;;;;;;;17.90;12.70;;;10.00;95.00;;;;;;5102013;28;20282;-82
2024/03/23 04:13:51;;;;;;;19.03;12.93;;;10.00;95.00;;;;;;5087254;28;20214;-81
2024/03/23 04:16:36;;;;;;;19.93;13.67;;;10.00;95.10;;;;;;5064067;28;20235;-81
2024/03/23 04:19:03;;;;;;;19.00;13.93;;;10.00;95.20;;;;;;5066460;28;20244;-81
2024/03/23 04:21:30;;;;;;;20.00;13.33;;;10.00;95.10;;;;;;5078650;28;20313;-81
2024/03/23 04:23:56;;;;;;;18.60;12.57;;;10.00;95.10;;;;;;5101460;28;20195;-81
2024/03/23 04:26:23;;;;;;;19.60;14.33;;;10.00;95.10;;;;;;5086696;28;20200;-83
2024/03/23 04:28:49;;;;;;;19.33;14.07;;;10.00;95.20;;;;;;5079333;28;20224;-81
2024/03/23 04:31:15;;;;;;;17.20;12.80;;;10.00;95.20;;;;;;5065524;28;20239;-83
2024/03/23 04:33:42;;;;;;;19.37;14.17;;;10.00;95.30;;;;;;5078475;28;20211;-81
2024/03/23 04:36:09;;;;;;;21.23;14.23;;;10.10;95.30;;;;;;5069721;28;20207;-81
2024/03/23 04:38:36;;;;;;;21.03;14.00;;;10.00;95.20;;;;;;5076032;28;20256;-80
2024/03/23 04:41:02;;;;;;;20.00;13.20;;;10.00;95.20;;;;;;5079313;28;20573;-81
2024/03/23 04:43:29;;;;;;;19.27;13.57;;;10.00;95.20;;;;;;5075256;28;20626;-80
2024/03/23 04:46:16;;;;;;;18.67;13.17;;;10.10;95.20;;;;;;5065109;28;20205;-81
2024/03/23 04:49:00;;;;;;;16.13;13.27;;;10.10;95.20;;;;;;5076001;28;20227;-80
2024/03/23 04:51:45;;;;;;;18.03;13.67;;;10.10;95.20;;;;;;5091065;28;20278;-80
2024/03/23 04:54:32;;;;;;;20.47;13.20;;;10.10;95.20;;;;;;5100402;28;20295;-81
2024/03/23 04:57:19;;;;;;;18.73;12.77;;;10.10;95.20;;;;;;5056829;28;20194;-82
2024/03/23 05:00:01;;;;;;;19.87;13.80;;;10.10;95.20;;;;;;5063483;28;20205;-81
2024/03/23 05:02:27;;;;;;;23.90;13.50;;;10.10;95.10;;;;;;5064518;28;20204;-81
2024/03/23 05:04:54;;;;;;;20.37;13.27;;;10.10;95.20;;;;;;5079755;28;20212;-80
2024/03/23 05:07:20;;;;;;;18.37;12.97;;;10.10;95.20;;;;;;5071591;28;20211;-81
2024/03/23 05:09:47;;;;;;;16.30;12.17;;;10.10;95.10;;;;;;5075076;28;20229;-81
2024/03/23 05:12:13;;;;;;;18.23;11.97;;;10.10;95.10;;;;;;5064989;28;20212;-81
2024/03/23 05:14:39;;;;;;;16.57;12.43;;;10.10;95.10;;;;;;5064736;28;20191;-81
2024/03/23 05:17:06;;;;;;;18.63;12.33;;;10.10;95.10;;;;;;5064484;28;20202;-81
2024/03/23 05:19:32;;;;;;;14.90;12.30;;;10.00;95.00;;;;;;5094154;28;20223;-80
2024/03/23 05:21:59;;;;;;;15.97;11.30;;;10.00;95.00;;;;;;5067357;28;20215;-80
2024/03/23 05:24:25;;;;;;;14.83;11.57;;;10.00;95.00;;;;;;5087007;28;20542;-81
2024/03/23 05:26:51;;;;;;;17.13;11.53;;;10.00;95.10;;;;;;5081010;28;20224;-81
2024/03/23 05:29:18;;;;;;;15.83;11.53;;;10.00;95.10;;;;;;5077203;28;20209;-81
2024/03/23 05:31:49;;;;;;;23.93;11.63;;;10.00;95.10;;;;;;5058318;28;20669;-80
2024/03/23 05:34:15;;;;;;;15.70;11.10;;;10.00;95.10;;;;;;5037726;28;20202;-83
2024/03/23 05:36:41;;;;;;;16.13;11.30;;;10.00;95.10;;;;;;5071183;28;20258;-81
2024/03/23 05:39:07;;;;;;;16.70;10.83;;;10.00;95.10;;;;;;5044157;28;20700;-81
2024/03/23 05:41:35;;;;;;;14.03;11.13;;;10.00;95.00;;;;;;5054878;28;20213;-80
2024/03/23 05:44:02;;;;;;;15.73;10.90;;;10.10;95.00;;;;;;5069907;28;20205;-80
2024/03/23 05:46:29;;;;;;;15.40;10.97;;;10.20;95.10;;;;;;5055982;28;20247;-80
2024/03/23 05:49:02;;;;;;;15.10;10.80;;;10.20;95.10;;;;;;5060451;28;20225;-81
2024/03/23 05:51:28;;;;;;;14.63;10.70;;;10.30;95.10;;;;;;5067532;28;20196;-81
2024/03/23 05:53:54;;;;;;;15.30;10.93;;;10.40;95.10;;;;;;5034689;28;20300;-81
2024/03/23 05:56:21;;;;;;;15.53;10.93;;;10.60;95.20;;;;;;5043603;28;20222;-82
2024/03/23 05:58:48;;;;;;;11.77;9.73;;;10.80;94.90;;;;;;5062356;28;20288;-81
2024/03/23 06:01:14;;;;;;;11.23;8.87;;;11.10;94.40;;;;;;5052349;28;20231;-83
2024/03/23 06:03:41;;;;;;;13.53;9.27;;;11.30;93.90;;;;;;5044002;28;20257;-80
2024/03/23 06:06:11;;;;;;;13.57;9.93;;;11.40;93.70;;;;;;5062287;28;20212;-81
2024/03/23 06:08:39;;;;;;;13.63;10.43;;;11.40;93.70;;;;;;5062538;28;20205;-80
2024/03/23 06:11:06;;;;;;;15.67;10.73;;;11.50;93.60;;;;;;5060089;28;20622;-80
2024/03/23 06:13:33;;;;;;;15.00;10.63;;;11.60;93.60;;;;;;5043726;28;20623;-81
2024/03/23 06:16:00;;;;;;;11.10;9.13;;;11.80;94.00;;;;;;5059753;28;20637;-81
2024/03/23 06:18:27;;;;;;;12.90;10.53;;;12.10;93.60;;;;;;5060268;28;20205;-82
2024/03/23 06:20:54;;;;;;;16.10;10.17;;;12.50;93.20;;;;;;5065500;28;20213;-81
2024/03/23 06:23:20;;;;;;;11.80;9.27;;;12.90;92.50;;;;;;5038007;28;20574;-81
2024/03/23 06:25:47;;;;;;;13.03;9.43;;;13.10;92.20;;;;;;5015783;28;20210;-80
2024/03/23 06:28:13;;;;;;;10.83;8.43;;;13.40;92.00;;;;;;5037511;28;20220;-80
2024/03/23 06:30:40;;;;;;;13.00;8.53;;;13.90;91.60;;;;;;5080665;28;20236;-81
2024/03/23 06:33:06;;;;;;;10.80;7.60;;;14.60;90.80;;;;;;5063897;28;20196;-80
2024/03/23 06:35:32;;;;;;;12.07;7.53;;;15.20;89.80;;;;;;5089042;28;20203;-82
2024/03/23 06:37:58;;;;;;;12.07;7.60;;;15.70;87.90;;;;;;5094644;28;20213;-81
2024/03/23 06:40:24;;;;;;;8.43;7.10;;;16.20;86.50;;;;;;5080216;28;20250;-81
2024/03/23 06:42:51;;;;;;;13.03;7.77;;;16.50;85.30;;;;;;5062670;28;20232;-83
2024/03/23 06:45:22;;;;;;;11.30;7.77;;;16.70;84.70;;;;;;5069305;28;20213;-82
2024/03/23 06:47:50;;;;;;;9.67;7.40;;;16.80;84.40;;;;;;5092290;28;20217;-80
2024/03/23 06:50:16;;;;;;;14.07;6.67;;;16.80;84.40;;;;;;5062980;28;20671;-81
2024/03/23 06:52:43;;;;;;;9.47;8.10;;;16.70;84.40;;;;;;5067394;28;20314;-81
2024/03/23 06:55:09;;;;;;;10.43;8.17;;;16.70;84.60;;;;;;5057271;28;20361;-81
2024/03/23 06:57:35;;;;;;;9.43;7.27;;;16.60;85.00;;;;;;5076995;28;20188;-82
2024/03/23 07:00:01;;;;;;;9.43;7.57;;;16.50;85.60;;;;;;5081595;28;20266;-80
2024/03/23 07:02:29;;;;;;;9.70;7.20;;;16.40;86.30;;;;;;5056611;28;20204;-81
2024/03/23 07:04:55;;;;;;;7.93;7.13;;;16.30;87.00;;;;;;5068893;28;20215;-81
2024/03/23 07:07:22;;;;;;;8.03;7.23;;;16.10;87.30;;;;;;5067416;28;20296;-82
2024/03/23 07:09:48;;;;;;;9.37;7.03;;;16.00;87.90;;;;;;5048792;28;20225;-81
2024/03/23 07:12:15;;;;;;;9.10;7.30;;;16.00;88.80;;;;;;5063531;28;20231;-82
2024/03/23 07:14:41;;;;;;;9.23;7.20;;;16.00;89.30;;;;;;5065524;28;20663;-82
2024/03/23 07:17:07;;;;;;;10.40;7.53;;;16.10;89.50;;;;;;5070799;28;20262;-82
2024/03/23 07:19:33;;;;;;;12.57;7.40;;;16.10;89.60;;;;;;5073689;28;20208;-83
2024/03/23 07:21:59;;;;;;;8.93;7.93;;;16.20;89.90;;;;;;5080874;28;20193;-82
2024/03/23 07:24:26;;;;;;;8.77;7.00;;;16.30;90.00;;;;;;5090163;28;20200;-81
2024/03/23 07:26:54;;;;;;;8.57;6.67;;;16.40;89.60;;;;;;5066561;28;20543;-81
2024/03/23 07:29:20;;;;;;;12.53;7.27;;;16.50;88.60;;;;;;5087764;28;20228;-81
2024/03/23 07:31:46;;;;;;;10.07;7.50;;;16.50;87.80;;;;;;5076371;28;20230;-82
2024/03/23 07:34:13;;;;;;;9.77;6.97;;;16.50;87.60;;;;;;5067045;28;20546;-81
2024/03/23 07:36:39;;;;;;;6.97;6.00;;;16.60;87.40;;;;;;5051051;28;20239;-81
2024/03/23 07:39:05;;;;;;;9.07;7.20;;;16.60;87.70;;;;;;5046811;28;20210;-81
2024/03/23 07:41:32;;;;;;;9.33;6.40;;;16.50;87.80;;;;;;5067172;28;20198;-82
2024/03/23 07:43:58;;;;;;;11.27;6.40;;;16.50;87.80;;;;;;5066378;28;20622;-81
2024/03/23 07:46:25;;;;;;;11.43;7.33;;;16.50;87.80;;;;;;5081185;28;20210;-82
2024/03/23 07:48:52;;;;;;;12.57;8.30;;;16.50;87.90;;;;;;5083159;28;20212;-81
2024/03/23 07:51:21;;;;;;;11.33;7.27;;;16.60;88.10;;;;;;5071201;28;20208;-81
2024/03/23 07:53:48;;;;;;;9.27;7.07;;;16.70;87.80;;;;;;5102954;28;20282;-81
2024/03/23 07:56:15;;;;;;;8.70;7.17;;;16.90;87.80;;;;;;5066998;28;20210;-80
2024/03/23 07:58:42;;;;;;;10.23;7.70;;;17.20;86.90;;;;;;5083201;28;20193;-81
2024/03/23 08:01:14;;;;;;;10.43;7.60;;;17.40;86.10;;;;;;5079470;28;20212;-80
2024/03/23 08:03:41;;;;;;;10.43;7.77;;;17.60;85.30;;;;;;5084427;28;20195;-80
2024/03/23 08:06:09;;;;;;;8.67;7.40;;;17.90;84.30;;;;;;5083703;28;20210;-80
2024/03/23 08:08:35;;;;;;;14.00;7.60;;;18.20;83.30;;;;;;5066458;28;20215;-80
2024/03/23 08:11:02;;;;;;;11.47;7.93;;;18.50;82.00;;;;;;5049878;28;20234;-81
2024/03/23 08:13:28;;;;;;;7.70;6.53;;;18.70;81.00;;;;;;5073585;28;20211;-81
2024/03/23 08:16:02;;;;;;;8.80;7.30;;;19.00;80.30;;;;;;5080512;28;20636;-81
2024/03/23 08:18:28;;;;;;;8.80;7.03;;;19.30;79.00;;;;;;5066657;28;20202;-80
2024/03/23 08:21:05;;;;;;;12.43;7.97;;;19.40;78.10;;;;;;5066105;28;20210;-80
2024/03/23 08:23:38;;;;;;;9.37;8.20;;;19.60;77.60;;;;;;5064348;28;20193;-80
2024/03/23 08:26:06;;;;;;;11.43;8.83;;;19.70;77.60;;;;;;5076365;28;20587;-80
2024/03/23 08:28:34;;;;;;;9.40;7.60;;;19.70;77.90;;;;;;5063994;28;20209;-81
2024/03/23 08:31:12;;;;;;;8.33;7.43;;;19.80;78.10;;;;;;5073836;28;20239;-80
2024/03/23 08:33:39;;;;;;;10.93;8.17;;;19.90;77.30;;;;;;5072172;28;20211;-80
2024/03/23 08:36:07;;;;;;;11.17;8.57;;;20.00;76.80;;;;;;5086836;28;20208;-81
2024/03/23 08:38:34;;;;;;;10.00;7.87;;;20.10;76.10;;;;;;5083836;28;20189;-80
2024/03/23 08:41:07;;;;;;;10.97;8.17;;;20.30;75.60;;;;;;5083204;28;20201;-82
2024/03/23 08:43:37;;;;;;;11.80;7.43;;;20.40;74.20;;;;;;5077925;28;20204;-81
2024/03/23 08:46:08;;;;;;;16.80;8.30;;;20.60;73.30;;;;;;5074780;28;20215;-81
2024/03/23 08:48:36;;;;;;;11.40;7.13;;;20.80;71.80;;;;;;5088361;28;20193;-81
2024/03/23 08:51:07;;;;;;;9.40;7.00;;;20.90;69.40;;;;;;5083676;28;20219;-81
2024/03/23 08:53:37;;;;;;;12.23;7.20;;;21.00;67.70;;;;;;5082765;28;20505;-80
2024/03/23 08:56:06;;;;;;;9.30;6.53;;;21.10;67.40;;;;;;5099924;28;20208;-81
2024/03/23 08:58:33;;;;;;;11.77;6.00;;;21.20;67.80;;;;;;5099177;28;20201;-80
2024/03/23 09:01:04;;;;;;;6.80;4.93;;;21.40;66.20;;;;;;5082390;28;20201;-81
2024/03/23 09:03:31;;;;;;;6.73;5.33;;;21.60;65.40;;;;;;5067913;28;20283;-81
2024/03/23 09:05:58;;;;;;;10.03;6.00;;;21.70;64.10;;;;;;5068991;28;20208;-81
2024/03/23 09:08:24;;;;;;;7.50;5.03;;;21.70;62.40;;;;;;5090156;28;20205;-80
2024/03/23 09:10:52;;;;;;;6.73;5.20;;;21.70;62.20;;;;;;5082179;28;20227;-82
2024/03/23 09:13:18;;;;;;;9.10;5.17;;;21.70;61.20;;;;;;5080477;28;20289;-80
2024/03/23 09:15:56;;;;;;;7.77;5.87;;;21.70;61.70;;;;;;5064070;28;20645;-80
2024/03/23 09:18:22;;;;;;;6.33;4.87;;;21.60;60.50;;;;;;5067465;28;20204;-80
2024/03/23 09:20:49;;;;;;;8.43;5.70;;;21.60;60.90;;;;;;5063388;28;20246;-82
2024/03/23 09:23:15;;;;;;;10.27;6.90;;;21.70;61.10;;;;;;5074754;28;20197;-81
2024/03/23 09:25:41;;;;;;;8.27;5.03;;;21.70;60.20;;;;;;5088999;28;20304;-81
2024/03/23 09:28:10;;;;;;;7.57;4.60;;;21.80;59.00;;;;;;5084226;28;20249;-81
2024/03/23 09:30:42;;;;;;;6.63;4.43;;;21.80;58.50;;;;;;5065076;28;20247;-81
2024/03/23 09:33:14;;;;;;;6.57;4.40;;;21.90;58.60;;;;;;5076747;28;20857;-81
2024/03/23 09:35:42;;;;;;;5.87;3.90;;;22.00;57.30;;;;;;5081438;28;20216;-82
2024/03/23 09:38:09;;;;;;;5.27;3.93;;;22.00;56.20;;;;;;5066056;28;20202;-82
2024/03/23 09:40:44;;;;;;;8.07;4.57;;;21.90;56.10;;;;;;5066239;28;20246;-81
2024/03/23 09:43:11;;;;;;;6.40;4.83;;;22.00;56.70;;;;;;5077862;28;20200;-81
2024/03/23 09:45:41;;;;;;;5.67;4.10;;;22.10;56.90;;;;;;5078045;28;20626;-80
2024/03/23 09:48:09;;;;;;;7.53;4.10;;;22.20;57.50;;;;;;5061573;28;20208;-80
2024/03/23 09:50:39;;;;;;;7.53;4.50;;;22.30;57.20;;;;;;5084578;28;20209;-82
2024/03/23 09:53:11;;;;;;;6.13;4.77;;;22.40;57.40;;;;;;5072060;28;20208;-80
2024/03/23 09:55:38;;;;;;;4.43;3.53;;;22.60;56.30;;;;;;5043771;28;20198;-80
2024/03/23 09:58:05;;;;;;;7.60;3.60;;;22.60;55.40;;;;;;5062961;28;20276;-81
2024/03/23 10:00:35;;;;;;;5.87;3.20;;;22.70;55.80;;;;;;5081537;28;20181;-80
2024/03/23 10:03:02;;;;;;;3.93;2.97;;;22.70;55.70;;;;;;5051828;28;20202;-83
2024/03/23 10:05:32;;;;;;;5.90;3.70;;;22.70;55.60;;;;;;5049115;28;20347;-80
2024/03/23 10:07:58;;;;;;;7.83;3.70;;;22.60;54.70;;;;;;5080190;28;20193;-81
2024/03/23 10:10:28;;;;;;;6.63;4.20;;;22.60;54.80;;;;;;5040761;28;20303;-83
2024/03/23 10:12:54;;;;;;;4.77;3.70;;;22.50;54.50;;;;;;5072271;28;20698;-82
2024/03/23 10:15:23;;;;;;;5.20;3.53;;;22.60;55.00;;;;;;5086604;28;20200;-80
2024/03/23 10:17:50;;;;;;;4.47;3.43;;;22.50;55.40;;;;;;5078352;28;20289;-82
2024/03/23 10:20:24;;;;;;;6.23;3.57;;;22.60;54.60;;;;;;5066588;28;20258;-80
2024/03/23 10:22:56;;;;;;;5.50;4.30;;;22.60;54.60;;;;;;5075593;28;20201;-80
2024/03/23 10:25:25;;;;;;;7.33;5.13;;;22.70;54.50;;;;;;5076975;28;20204;-81
2024/03/23 10:28:01;;;;;;;5.03;4.07;;;22.80;52.60;;;;;;5071745;28;20236;-82
2024/03/23 10:30:27;;;;;;;5.80;4.50;;;22.80;53.40;;;;;;5082446;28;20591;-81
2024/03/23 10:33:41;;;;;;;4.50;4.00;;;22.80;54.20;;;;;;5068488;28;20279;-81
2024/03/23 10:36:07;;;;;;;6.50;4.37;;;22.80;53.40;;;;;;5061763;28;20201;-79
2024/03/23 10:38:34;;;;;;;9.27;4.70;;;22.80;53.40;;;;;;5077932;28;20212;-81
2024/03/23 10:41:01;;;;;;;6.00;3.97;;;22.90;52.90;;;;;;5077221;28;20235;-81
2024/03/23 10:43:28;;;;;;;12.87;4.90;;;23.00;53.50;;;;;;5040969;28;20556;-81
2024/03/23 10:45:55;;;;;;;9.63;5.03;;;23.10;53.00;;;;;;5076325;28;20206;-81
2024/03/23 10:48:21;;;;;;;22.90;6.57;;;23.20;52.10;;;;;;5069670;28;20213;-82
2024/03/23 10:50:47;;;;;;;12.40;5.63;;;23.20;52.00;;;;;;5074998;28;20217;-80
2024/03/23 10:53:14;;;;;;;8.23;5.07;;;23.20;53.20;;;;;;5056017;28;20283;-80
2024/03/23 10:55:41;;;;;;;6.10;5.00;;;23.30;52.60;;;;;;5072293;28;20545;-80
2024/03/23 10:58:12;;;;;;;10.40;5.20;;;23.30;52.60;;;;;;5059772;28;20218;-82
2024/03/23 11:00:39;;;;;;;10.90;5.73;;;23.40;52.10;;;;;;5077235;28;20205;-81
2024/03/23 11:03:36;;;;;;;9.13;5.40;;;23.40;52.30;;;;;;5053554;28;20293;-81
2024/03/23 11:06:04;;;;;;;9.43;5.70;;;23.40;53.40;;;;;;5068215;28;20238;-80
2024/03/23 11:08:41;;;;;;;6.70;4.77;;;23.40;52.30;;;;;;5077801;28;20189;-81
2024/03/23 11:11:24;;;;;;;7.70;5.77;;;23.40;52.50;;;;;;5064670;28;20264;-82
2024/03/23 11:13:52;;;;;;;8.23;5.97;;;23.50;52.70;;;;;;5078250;28;20225;-80
2024/03/23 11:16:25;;;;;;;7.40;5.60;;;23.50;51.50;;;;;;5058520;28;20296;-83
2024/03/23 11:18:51;;;;;;;6.57;5.07;;;23.50;50.60;;;;;;5072993;28;20201;-81
2024/03/23 11:21:56;;;;;;;8.20;5.60;;;23.50;50.70;;;;;;5051551;28;20207;-81
2024/03/23 11:24:22;;;;;;;10.50;5.77;;;23.50;50.40;;;;;;5059228;28;20657;-80
2024/03/23 11:26:49;;;;;;;9.00;6.27;;;23.50;50.80;;;;;;5050281;28;20213;-80
2024/03/23 11:29:17;;;;;;;8.27;5.93;;;23.50;51.10;;;;;;5052532;28;20287;-80
2024/03/23 11:31:51;;;;;;;15.60;6.43;;;23.60;51.30;;;;;;5043262;28;20328;-81
2024/03/23 11:34:18;;;;;;;8.10;6.00;;;23.60;51.00;;;;;;5065929;28;20211;-80
2024/03/23 11:36:45;;;;;;;43.13;38.47;;;23.60;50.90;;;;;;5068828;28;20299;-79
2024/03/23 11:39:13;;;;;;;494.80;362.37;;;23.70;51.10;;;;;;5068903;28;20561;-80
2024/03/23 11:41:53;;;;;;;1593.77;676.17;;;23.80;49.90;;;;;;5078066;28;20197;-81
2024/03/23 11:44:25;;;;;;;1038.47;442.93;;;23.80;50.80;;;;;;5069356;28;20253;-80
2024/03/23 11:46:52;;;;;;;203.60;92.07;;;23.90;51.20;;;;;;5061577;28;20233;-82
2024/03/23 11:49:25;;;;;;;73.43;41.70;;;23.90;51.50;;;;;;5081415;28;20221;-80
2024/03/23 11:51:55;;;;;;;16.83;9.40;;;24.00;52.70;;;;;;5069484;28;20189;-80
2024/03/23 11:54:26;;;;;;;13.23;9.17;;;23.90;52.60;;;;;;5083739;28;20633;-80
2024/03/23 11:56:57;;;;;;;11.43;8.10;;;23.90;51.70;;;;;;5063862;28;20764;-80
2024/03/23 11:59:41;;;;;;;9.70;6.27;;;23.90;51.70;;;;;;5085890;28;20207;-79
2024/03/23 12:02:11;;;;;;;9.07;6.90;;;23.80;52.00;;;;;;5080263;28;20657;-81
2024/03/23 12:04:39;;;;;;;10.07;6.50;;;23.90;51.20;;;;;;5061424;28;20217;-82
2024/03/23 12:07:20;;;;;;;9.23;6.67;;;23.80;51.10;;;;;;5077998;28;20213;-82
2024/03/23 12:10:02;;;;;;;9.40;7.40;;;23.80;51.40;;;;;;5079401;28;20209;-82
2024/03/23 12:12:28;;;;;;;9.30;6.77;;;23.70;50.90;;;;;;5043498;28;20209;-83
2024/03/23 12:15:05;;;;;;;9.53;6.13;;;23.80;51.20;;;;;;5064006;28;20305;-82
2024/03/23 12:17:32;;;;;;;8.47;6.13;;;23.70;50.10;;;;;;5096047;28;20295;-84
2024/03/23 12:19:59;;;;;;;12.23;5.60;;;23.70;50.40;;;;;;5069376;28;20671;-81
2024/03/23 12:22:25;;;;;;;6.83;4.53;;;23.70;50.20;;;;;;5071441;28;20200;-80
2024/03/23 12:24:52;;;;;;;7.20;5.03;;;23.70;50.90;;;;;;5064961;28;20212;-82
2024/03/23 12:27:18;;;;;;;8.67;5.33;;;23.80;50.80;;;;;;5094164;28;20220;-81
2024/03/23 12:29:45;;;;;;;7.43;5.30;;;23.90;49.90;;;;;;5075065;28;20664;-81
2024/03/23 12:32:12;;;;;;;7.40;6.00;;;24.00;49.40;;;;;;5090361;28;20200;-81
2024/03/23 12:34:39;;;;;;;8.30;5.70;;;24.00;49.70;;;;;;5053251;28;20202;-81
2024/03/23 12:37:12;;;;;;;10.90;5.80;;;24.00;50.70;;;;;;5071066;28;20213;-81
2024/03/23 12:39:38;;;;;;;7.03;5.50;;;23.90;49.10;;;;;;5062107;28;20261;-79
2024/03/23 12:42:08;;;;;;;6.60;5.40;;;23.90;49.50;;;;;;5049580;28;20673;-82
2024/03/23 12:44:35;;;;;;;7.67;6.07;;;23.90;49.50;;;;;;5049550;28;20213;-80
2024/03/23 12:47:02;;;;;;;8.53;5.00;;;23.90;49.60;;;;;;5062782;28;20226;-81
2024/03/23 12:49:29;;;;;;;9.40;6.00;;;23.90;50.10;;;;;;5062765;28;20245;-79
2024/03/23 12:51:56;;;;;;;8.07;5.53;;;24.00;49.80;;;;;;5062160;28;21156;-81
2024/03/23 12:54:23;;;;;;;9.37;6.20;;;24.10;49.30;;;;;;5045191;28;20222;-81